sensor_id;sensor_type;location;lat;lon;timestamp;P1;durP1;ratioP1;P2;durP2;ratioP2
20020;SDS011;10171;42.694;23.318;2023-06-22T00:02:04;12.43;;;9.05;;
20020;SDS011;10171;42.694;23.318;2023-06-22T00:04:30;11.57;;;8.85;;
20020;SDS011;10171;42.694;23.318;2023-06-22T00:06:55;13.55;;;9.15;;
20020;SDS011;10171;42.694;23.318;2023-06-22T00:09:20;10.50;;;9.00;;
20020;SDS011;10171;42.694;23.318;2023-06-22T00:11:46;11.40;;;9.10;;
20020;SDS011;10171;42.694;23.318;2023-06-22T00:14:11;10.95;;;8.95;;
20020;SDS011;10171;42.694;23.318;2023-06-22T00:16:36;11.68;;;9.20;;
20020;SDS011;10171;42.694;23.318;2023-06-22T00:19:02;12.57;;;9.25;;
20020;SDS011;10171;42.694;23.318;2023-06-22T00:21:28;13.52;;;10.13;;
20020;SDS011;10171;42.694;23.318;2023-06-22T00:23:54;14.32;;;10.32;;
20020;SDS011;10171;42.694;23.318;2023-06-22T00:26:20;15.82;;;10.70;;
20020;SDS011;10171;42.694;23.318;2023-06-22T00:28:46;14.02;;;10.32;;
20020;SDS011;10171;42.694;23.318;2023-06-22T00:31:12;13.57;;;10.50;;
20020;SDS011;10171;42.694;23.318;2023-06-22T00:33:38;15.63;;;10.70;;
20020;SDS011;10171;42.694;23.318;2023-06-22T00:36:03;16.73;;;10.82;;
20020;SDS011;10171;42.694;23.318;2023-06-22T00:38:29;14.35;;;11.48;;
20020;SDS011;10171;42.694;23.318;2023-06-22T00:40:55;13.70;;;11.02;;
20020;SDS011;10171;42.694;23.318;2023-06-22T00:43:20;15.20;;;11.35;;
20020;SDS011;10171;42.694;23.318;2023-06-22T00:45:46;13.40;;;11.07;;
20020;SDS011;10171;42.694;23.318;2023-06-22T00:48:12;14.65;;;11.80;;
20020;SDS011;10171;42.694;23.318;2023-06-22T00:50:39;12.93;;;10.93;;
20020;SDS011;10171;42.694;23.318;2023-06-22T00:53:05;12.48;;;10.05;;
20020;SDS011;10171;42.694;23.318;2023-06-22T00:55:42;13.85;;;10.77;;
20020;SDS011;10171;42.694;23.318;2023-06-22T00:58:10;15.65;;;11.43;;
20020;SDS011;10171;42.694;23.318;2023-06-22T01:00:37;14.05;;;11.27;;
20020;SDS011;10171;42.694;23.318;2023-06-22T01:03:03;17.15;;;11.02;;
20020;SDS011;10171;42.694;23.318;2023-06-22T01:05:34;14.40;;;11.25;;
20020;SDS011;10171;42.694;23.318;2023-06-22T01:16:19;14.52;;;11.73;;
20020;SDS011;10171;42.694;23.318;2023-06-22T01:18:48;13.10;;;11.02;;
20020;SDS011;10171;42.694;23.318;2023-06-22T01:21:18;15.02;;;11.02;;
20020;SDS011;10171;42.694;23.318;2023-06-22T01:23:53;13.93;;;10.75;;
20020;SDS011;10171;42.694;23.318;2023-06-22T01:26:22;13.65;;;10.60;;
20020;SDS011;10171;42.694;23.318;2023-06-22T01:28:59;14.52;;;11.23;;
20020;SDS011;10171;42.694;23.318;2023-06-22T01:31:28;16.48;;;11.35;;
20020;SDS011;10171;42.694;23.318;2023-06-22T01:34:04;15.50;;;10.98;;
20020;SDS011;10171;42.694;23.318;2023-06-22T01:36:31;15.60;;;11.00;;
20020;SDS011;10171;42.694;23.318;2023-06-22T01:38:58;13.60;;;10.90;;
20020;SDS011;10171;42.694;23.318;2023-06-22T01:41:25;13.52;;;11.23;;
20020;SDS011;10171;42.694;23.318;2023-06-22T01:43:52;14.30;;;11.20;;
20020;SDS011;10171;42.694;23.318;2023-06-22T01:46:18;13.70;;;11.07;;
20020;SDS011;10171;42.694;23.318;2023-06-22T01:48:45;14.50;;;11.13;;
20020;SDS011;10171;42.694;23.318;2023-06-22T01:51:11;14.15;;;11.30;;
20020;SDS011;10171;42.694;23.318;2023-06-22T01:53:37;13.52;;;11.00;;
20020;SDS011;10171;42.694;23.318;2023-06-22T01:56:03;14.15;;;11.30;;
20020;SDS011;10171;42.694;23.318;2023-06-22T01:58:29;12.68;;;10.95;;
20020;SDS011;10171;42.694;23.318;2023-06-22T02:03:31;17.80;;;12.32;;
20020;SDS011;10171;42.694;23.318;2023-06-22T02:06:05;15.95;;;11.45;;
20020;SDS011;10171;42.694;23.318;2023-06-22T02:08:37;13.00;;;11.20;;
20020;SDS011;10171;42.694;23.318;2023-06-22T02:11:06;15.43;;;12.20;;
20020;SDS011;10171;42.694;23.318;2023-06-22T02:13:34;13.98;;;10.88;;
20020;SDS011;10171;42.694;23.318;2023-06-22T02:16:01;14.32;;;10.50;;
20020;SDS011;10171;42.694;23.318;2023-06-22T02:18:26;16.25;;;10.63;;
20020;SDS011;10171;42.694;23.318;2023-06-22T02:20:53;14.18;;;10.68;;
20020;SDS011;10171;42.694;23.318;2023-06-22T02:23:18;16.85;;;11.38;;
20020;SDS011;10171;42.694;23.318;2023-06-22T02:25:45;19.08;;;12.07;;
20020;SDS011;10171;42.694;23.318;2023-06-22T02:28:10;16.38;;;11.45;;
20020;SDS011;10171;42.694;23.318;2023-06-22T02:30:36;16.73;;;11.77;;
20020;SDS011;10171;42.694;23.318;2023-06-22T02:33:01;15.93;;;11.98;;
20020;SDS011;10171;42.694;23.318;2023-06-22T02:35:27;14.27;;;11.48;;
20020;SDS011;10171;42.694;23.318;2023-06-22T02:37:59;16.15;;;12.07;;
20020;SDS011;10171;42.694;23.318;2023-06-22T02:40:25;16.48;;;12.27;;
20020;SDS011;10171;42.694;23.318;2023-06-22T02:42:51;14.80;;;10.90;;
20020;SDS011;10171;42.694;23.318;2023-06-22T02:45:17;14.70;;;11.50;;
20020;SDS011;10171;42.694;23.318;2023-06-22T02:47:42;15.88;;;11.88;;
20020;SDS011;10171;42.694;23.318;2023-06-22T02:50:08;15.82;;;12.10;;
20020;SDS011;10171;42.694;23.318;2023-06-22T02:52:34;15.68;;;11.85;;
20020;SDS011;10171;42.694;23.318;2023-06-22T02:54:59;15.43;;;11.98;;
20020;SDS011;10171;42.694;23.318;2023-06-22T02:57:25;17.42;;;12.30;;
20020;SDS011;10171;42.694;23.318;2023-06-22T02:59:50;16.30;;;11.88;;
20020;SDS011;10171;42.694;23.318;2023-06-22T03:02:16;17.23;;;11.70;;
20020;SDS011;10171;42.694;23.318;2023-06-22T03:04:42;15.32;;;11.50;;
20020;SDS011;10171;42.694;23.318;2023-06-22T03:07:08;17.85;;;12.18;;
20020;SDS011;10171;42.694;23.318;2023-06-22T03:09:33;15.07;;;11.88;;
20020;SDS011;10171;42.694;23.318;2023-06-22T03:11:59;14.65;;;11.90;;
20020;SDS011;10171;42.694;23.318;2023-06-22T03:14:24;15.13;;;11.68;;
20020;SDS011;10171;42.694;23.318;2023-06-22T03:16:50;13.77;;;11.02;;
20020;SDS011;10171;42.694;23.318;2023-06-22T03:19:15;14.02;;;11.40;;
20020;SDS011;10171;42.694;23.318;2023-06-22T03:21:41;19.40;;;11.80;;
20020;SDS011;10171;42.694;23.318;2023-06-22T03:24:07;15.60;;;11.80;;
20020;SDS011;10171;42.694;23.318;2023-06-22T03:26:34;13.43;;;10.43;;
20020;SDS011;10171;42.694;23.318;2023-06-22T03:29:00;18.40;;;11.05;;
20020;SDS011;10171;42.694;23.318;2023-06-22T03:31:25;17.52;;;12.05;;
20020;SDS011;10171;42.694;23.318;2023-06-22T03:33:51;15.20;;;11.65;;
20020;SDS011;10171;42.694;23.318;2023-06-22T03:36:17;13.88;;;11.43;;
20020;SDS011;10171;42.694;23.318;2023-06-22T03:38:46;19.20;;;11.88;;
20020;SDS011;10171;42.694;23.318;2023-06-22T03:41:13;14.63;;;11.95;;
20020;SDS011;10171;42.694;23.318;2023-06-22T03:43:38;16.85;;;11.38;;
20020;SDS011;10171;42.694;23.318;2023-06-22T03:46:04;16.77;;;11.98;;
20020;SDS011;10171;42.694;23.318;2023-06-22T03:48:30;17.40;;;12.40;;
20020;SDS011;10171;42.694;23.318;2023-06-22T03:50:55;15.07;;;11.48;;
20020;SDS011;10171;42.694;23.318;2023-06-22T03:53:21;17.67;;;11.60;;
20020;SDS011;10171;42.694;23.318;2023-06-22T03:55:52;14.05;;;11.45;;
20020;SDS011;10171;42.694;23.318;2023-06-22T03:58:18;18.20;;;11.75;;
20020;SDS011;10171;42.694;23.318;2023-06-22T04:00:46;18.02;;;11.77;;
20020;SDS011;10171;42.694;23.318;2023-06-22T04:03:12;13.82;;;11.50;;
20020;SDS011;10171;42.694;23.318;2023-06-22T04:05:38;17.13;;;12.15;;
20020;SDS011;10171;42.694;23.318;2023-06-22T04:08:04;18.20;;;12.68;;
20020;SDS011;10171;42.694;23.318;2023-06-22T04:10:30;20.10;;;12.25;;
20020;SDS011;10171;42.694;23.318;2023-06-22T04:12:56;18.38;;;13.52;;
20020;SDS011;10171;42.694;23.318;2023-06-22T04:15:21;15.38;;;12.02;;
20020;SDS011;10171;42.694;23.318;2023-06-22T04:17:47;17.17;;;12.63;;
20020;SDS011;10171;42.694;23.318;2023-06-22T04:20:12;17.23;;;12.05;;
20020;SDS011;10171;42.694;23.318;2023-06-22T04:22:37;16.42;;;12.18;;
20020;SDS011;10171;42.694;23.318;2023-06-22T04:25:03;19.83;;;12.77;;
20020;SDS011;10171;42.694;23.318;2023-06-22T04:27:30;15.57;;;12.52;;
20020;SDS011;10171;42.694;23.318;2023-06-22T04:29:56;15.07;;;12.23;;
20020;SDS011;10171;42.694;23.318;2023-06-22T04:32:21;15.32;;;12.05;;
20020;SDS011;10171;42.694;23.318;2023-06-22T04:34:46;15.88;;;13.07;;
20020;SDS011;10171;42.694;23.318;2023-06-22T04:37:12;18.10;;;13.23;;
20020;SDS011;10171;42.694;23.318;2023-06-22T04:39:40;19.27;;;12.65;;
20020;SDS011;10171;42.694;23.318;2023-06-22T04:42:07;16.10;;;12.52;;
20020;SDS011;10171;42.694;23.318;2023-06-22T04:44:32;16.92;;;12.50;;
20020;SDS011;10171;42.694;23.318;2023-06-22T04:46:58;19.13;;;13.35;;
20020;SDS011;10171;42.694;23.318;2023-06-22T04:49:29;17.58;;;13.77;;
20020;SDS011;10171;42.694;23.318;2023-06-22T04:52:01;19.02;;;13.25;;
20020;SDS011;10171;42.694;23.318;2023-06-22T04:54:27;19.10;;;13.38;;
20020;SDS011;10171;42.694;23.318;2023-06-22T04:56:53;19.98;;;13.65;;
20020;SDS011;10171;42.694;23.318;2023-06-22T04:59:22;17.20;;;12.75;;
20020;SDS011;10171;42.694;23.318;2023-06-22T05:01:52;19.13;;;13.55;;
20020;SDS011;10171;42.694;23.318;2023-06-22T05:04:18;18.05;;;12.68;;
20020;SDS011;10171;42.694;23.318;2023-06-22T05:06:44;21.02;;;13.80;;
20020;SDS011;10171;42.694;23.318;2023-06-22T05:09:10;18.17;;;13.38;;
20020;SDS011;10171;42.694;23.318;2023-06-22T05:11:37;17.98;;;13.07;;
20020;SDS011;10171;42.694;23.318;2023-06-22T05:14:03;18.55;;;13.88;;
20020;SDS011;10171;42.694;23.318;2023-06-22T05:16:28;19.40;;;14.10;;
20020;SDS011;10171;42.694;23.318;2023-06-22T05:18:54;23.20;;;14.27;;
20020;SDS011;10171;42.694;23.318;2023-06-22T05:21:23;19.90;;;15.30;;
20020;SDS011;10171;42.694;23.318;2023-06-22T05:23:51;20.02;;;14.82;;
20020;SDS011;10171;42.694;23.318;2023-06-22T05:26:17;20.88;;;14.85;;
20020;SDS011;10171;42.694;23.318;2023-06-22T05:28:44;18.77;;;14.18;;
20020;SDS011;10171;42.694;23.318;2023-06-22T05:31:16;20.65;;;14.00;;
20020;SDS011;10171;42.694;23.318;2023-06-22T05:33:42;18.33;;;14.25;;
20020;SDS011;10171;42.694;23.318;2023-06-22T05:36:09;18.20;;;13.77;;
20020;SDS011;10171;42.694;23.318;2023-06-22T05:38:35;19.45;;;13.15;;
20020;SDS011;10171;42.694;23.318;2023-06-22T05:41:01;16.83;;;13.00;;
20020;SDS011;10171;42.694;23.318;2023-06-22T05:43:27;17.80;;;12.93;;
20020;SDS011;10171;42.694;23.318;2023-06-22T05:45:53;17.20;;;12.38;;
20020;SDS011;10171;42.694;23.318;2023-06-22T05:48:18;19.30;;;13.18;;
20020;SDS011;10171;42.694;23.318;2023-06-22T05:50:44;16.73;;;12.95;;
20020;SDS011;10171;42.694;23.318;2023-06-22T05:53:09;17.70;;;13.23;;
20020;SDS011;10171;42.694;23.318;2023-06-22T05:55:34;17.05;;;13.35;;
20020;SDS011;10171;42.694;23.318;2023-06-22T05:58:00;17.90;;;13.15;;
20020;SDS011;10171;42.694;23.318;2023-06-22T06:00:25;16.95;;;12.65;;
20020;SDS011;10171;42.694;23.318;2023-06-22T06:02:51;16.05;;;12.57;;
20020;SDS011;10171;42.694;23.318;2023-06-22T06:05:16;15.57;;;12.45;;
20020;SDS011;10171;42.694;23.318;2023-06-22T06:07:43;15.18;;;12.93;;
20020;SDS011;10171;42.694;23.318;2023-06-22T06:10:09;26.75;;;13.50;;
20020;SDS011;10171;42.694;23.318;2023-06-22T06:12:34;20.50;;;13.88;;
20020;SDS011;10171;42.694;23.318;2023-06-22T06:15:00;17.58;;;13.82;;
20020;SDS011;10171;42.694;23.318;2023-06-22T06:17:26;17.95;;;12.77;;
20020;SDS011;10171;42.694;23.318;2023-06-22T06:19:51;21.75;;;14.48;;
20020;SDS011;10171;42.694;23.318;2023-06-22T06:22:17;21.17;;;15.25;;
20020;SDS011;10171;42.694;23.318;2023-06-22T06:24:44;22.00;;;16.13;;
20020;SDS011;10171;42.694;23.318;2023-06-22T06:27:10;19.80;;;14.68;;
20020;SDS011;10171;42.694;23.318;2023-06-22T06:29:35;21.00;;;15.40;;
20020;SDS011;10171;42.694;23.318;2023-06-22T06:32:01;21.17;;;14.68;;
20020;SDS011;10171;42.694;23.318;2023-06-22T06:34:26;17.67;;;13.65;;
20020;SDS011;10171;42.694;23.318;2023-06-22T06:36:51;19.35;;;14.88;;
20020;SDS011;10171;42.694;23.318;2023-06-22T06:39:17;20.85;;;14.43;;
20020;SDS011;10171;42.694;23.318;2023-06-22T06:41:42;20.50;;;13.25;;
20020;SDS011;10171;42.694;23.318;2023-06-22T06:44:08;18.83;;;14.38;;
20020;SDS011;10171;42.694;23.318;2023-06-22T06:46:33;17.58;;;14.13;;
20020;SDS011;10171;42.694;23.318;2023-06-22T06:48:59;17.42;;;13.05;;
20020;SDS011;10171;42.694;23.318;2023-06-22T06:51:24;18.30;;;13.15;;
20020;SDS011;10171;42.694;23.318;2023-06-22T06:53:49;17.45;;;13.55;;
20020;SDS011;10171;42.694;23.318;2023-06-22T06:56:15;17.30;;;13.48;;
20020;SDS011;10171;42.694;23.318;2023-06-22T06:58:41;21.50;;;13.98;;
20020;SDS011;10171;42.694;23.318;2023-06-22T07:01:08;15.82;;;12.23;;
20020;SDS011;10171;42.694;23.318;2023-06-22T07:03:33;17.60;;;13.23;;
20020;SDS011;10171;42.694;23.318;2023-06-22T07:05:59;14.52;;;11.35;;
20020;SDS011;10171;42.694;23.318;2023-06-22T07:08:25;18.02;;;12.98;;
20020;SDS011;10171;42.694;23.318;2023-06-22T07:10:51;18.42;;;13.18;;
20020;SDS011;10171;42.694;23.318;2023-06-22T07:13:17;15.27;;;12.07;;
20020;SDS011;10171;42.694;23.318;2023-06-22T07:15:43;19.65;;;13.43;;
20020;SDS011;10171;42.694;23.318;2023-06-22T07:18:08;17.48;;;12.35;;
20020;SDS011;10171;42.694;23.318;2023-06-22T07:20:34;17.98;;;12.68;;
20020;SDS011;10171;42.694;23.318;2023-06-22T07:22:59;17.50;;;13.80;;
20020;SDS011;10171;42.694;23.318;2023-06-22T07:25:25;16.83;;;13.10;;
20020;SDS011;10171;42.694;23.318;2023-06-22T07:28:03;19.23;;;14.52;;
20020;SDS011;10171;42.694;23.318;2023-06-22T07:30:30;17.00;;;13.02;;
20020;SDS011;10171;42.694;23.318;2023-06-22T07:32:57;14.52;;;12.07;;
20020;SDS011;10171;42.694;23.318;2023-06-22T07:35:23;17.98;;;13.63;;
20020;SDS011;10171;42.694;23.318;2023-06-22T07:37:49;17.50;;;12.13;;
20020;SDS011;10171;42.694;23.318;2023-06-22T07:40:14;16.95;;;11.88;;
20020;SDS011;10171;42.694;23.318;2023-06-22T07:42:40;14.32;;;11.80;;
20020;SDS011;10171;42.694;23.318;2023-06-22T07:45:05;19.63;;;12.93;;
20020;SDS011;10171;42.694;23.318;2023-06-22T07:47:33;16.85;;;12.80;;
20020;SDS011;10171;42.694;23.318;2023-06-22T07:50:00;13.02;;;10.98;;
20020;SDS011;10171;42.694;23.318;2023-06-22T07:52:27;19.17;;;13.02;;
20020;SDS011;10171;42.694;23.318;2023-06-22T07:54:53;18.05;;;12.07;;
20020;SDS011;10171;42.694;23.318;2023-06-22T07:57:19;15.75;;;12.20;;
20020;SDS011;10171;42.694;23.318;2023-06-22T07:59:45;16.05;;;12.43;;
20020;SDS011;10171;42.694;23.318;2023-06-22T08:02:11;16.73;;;11.52;;
20020;SDS011;10171;42.694;23.318;2023-06-22T08:04:36;17.00;;;13.30;;
20020;SDS011;10171;42.694;23.318;2023-06-22T08:07:02;17.58;;;13.18;;
20020;SDS011;10171;42.694;23.318;2023-06-22T08:09:30;17.05;;;13.07;;
20020;SDS011;10171;42.694;23.318;2023-06-22T08:11:56;16.90;;;13.40;;
20020;SDS011;10171;42.694;23.318;2023-06-22T08:14:23;19.08;;;13.07;;
20020;SDS011;10171;42.694;23.318;2023-06-22T08:16:52;18.45;;;12.90;;
20020;SDS011;10171;42.694;23.318;2023-06-22T08:19:17;17.17;;;12.32;;
20020;SDS011;10171;42.694;23.318;2023-06-22T08:21:43;16.25;;;13.40;;
20020;SDS011;10171;42.694;23.318;2023-06-22T08:24:08;17.17;;;13.35;;
20020;SDS011;10171;42.694;23.318;2023-06-22T08:26:34;19.95;;;12.80;;
20020;SDS011;10171;42.694;23.318;2023-06-22T08:29:04;16.38;;;12.38;;
20020;SDS011;10171;42.694;23.318;2023-06-22T08:31:30;15.80;;;12.77;;
20020;SDS011;10171;42.694;23.318;2023-06-22T08:33:59;18.83;;;13.63;;
20020;SDS011;10171;42.694;23.318;2023-06-22T08:36:24;16.23;;;12.07;;
20020;SDS011;10171;42.694;23.318;2023-06-22T08:38:50;15.80;;;11.95;;
20020;SDS011;10171;42.694;23.318;2023-06-22T08:41:16;18.38;;;12.60;;
20020;SDS011;10171;42.694;23.318;2023-06-22T08:43:43;15.88;;;12.30;;
20020;SDS011;10171;42.694;23.318;2023-06-22T08:46:11;14.85;;;11.63;;
20020;SDS011;10171;42.694;23.318;2023-06-22T08:48:37;16.13;;;11.80;;
20020;SDS011;10171;42.694;23.318;2023-06-22T08:51:02;14.02;;;12.57;;
20020;SDS011;10171;42.694;23.318;2023-06-22T08:53:29;13.85;;;11.90;;
20020;SDS011;10171;42.694;23.318;2023-06-22T08:55:54;13.82;;;12.00;;
20020;SDS011;10171;42.694;23.318;2023-06-22T08:58:20;14.00;;;11.55;;
20020;SDS011;10171;42.694;23.318;2023-06-22T09:00:46;17.05;;;11.93;;
20020;SDS011;10171;42.694;23.318;2023-06-22T09:03:12;13.43;;;11.35;;
20020;SDS011;10171;42.694;23.318;2023-06-22T09:05:38;13.50;;;12.07;;
20020;SDS011;10171;42.694;23.318;2023-06-22T09:08:04;14.82;;;12.02;;
20020;SDS011;10171;42.694;23.318;2023-06-22T09:10:29;14.13;;;11.98;;
20020;SDS011;10171;42.694;23.318;2023-06-22T09:12:55;13.48;;;11.43;;
20020;SDS011;10171;42.694;23.318;2023-06-22T09:15:20;13.20;;;11.43;;
20020;SDS011;10171;42.694;23.318;2023-06-22T09:17:46;13.77;;;11.35;;
20020;SDS011;10171;42.694;23.318;2023-06-22T09:20:11;13.88;;;11.70;;
20020;SDS011;10171;42.694;23.318;2023-06-22T09:22:37;14.00;;;11.43;;
20020;SDS011;10171;42.694;23.318;2023-06-22T09:25:03;11.02;;;9.93;;
20020;SDS011;10171;42.694;23.318;2023-06-22T09:27:29;13.00;;;10.88;;
20020;SDS011;10171;42.694;23.318;2023-06-22T09:29:55;11.40;;;9.95;;
20020;SDS011;10171;42.694;23.318;2023-06-22T09:32:20;13.63;;;11.30;;
20020;SDS011;10171;42.694;23.318;2023-06-22T09:34:45;11.20;;;10.05;;
20020;SDS011;10171;42.694;23.318;2023-06-22T09:37:11;13.52;;;10.93;;
20020;SDS011;10171;42.694;23.318;2023-06-22T09:39:37;14.60;;;10.63;;
20020;SDS011;10171;42.694;23.318;2023-06-22T09:42:02;12.68;;;11.02;;
20020;SDS011;10171;42.694;23.318;2023-06-22T09:44:28;13.70;;;10.73;;
20020;SDS011;10171;42.694;23.318;2023-06-22T09:46:53;17.92;;;11.23;;
20020;SDS011;10171;42.694;23.318;2023-06-22T09:49:19;11.63;;;10.40;;
20020;SDS011;10171;42.694;23.318;2023-06-22T09:51:44;11.43;;;10.23;;
20020;SDS011;10171;42.694;23.318;2023-06-22T09:54:10;10.50;;;9.45;;
20020;SDS011;10171;42.694;23.318;2023-06-22T09:56:35;10.70;;;9.45;;
20020;SDS011;10171;42.694;23.318;2023-06-22T09:59:02;13.55;;;10.63;;
20020;SDS011;10171;42.694;23.318;2023-06-22T10:01:28;11.23;;;9.60;;
20020;SDS011;10171;42.694;23.318;2023-06-22T10:03:53;11.63;;;10.30;;
20020;SDS011;10171;42.694;23.318;2023-06-22T10:06:22;13.13;;;10.90;;
20020;SDS011;10171;42.694;23.318;2023-06-22T10:08:48;14.13;;;10.77;;
20020;SDS011;10171;42.694;23.318;2023-06-22T10:11:15;12.38;;;10.00;;
20020;SDS011;10171;42.694;23.318;2023-06-22T10:13:40;11.38;;;9.70;;
20020;SDS011;10171;42.694;23.318;2023-06-22T10:16:06;14.25;;;10.85;;
20020;SDS011;10171;42.694;23.318;2023-06-22T10:18:32;12.20;;;10.35;;
20020;SDS011;10171;42.694;23.318;2023-06-22T10:20:57;11.18;;;9.85;;
20020;SDS011;10171;42.694;23.318;2023-06-22T10:23:23;12.48;;;10.80;;
20020;SDS011;10171;42.694;23.318;2023-06-22T10:25:48;12.48;;;10.82;;
20020;SDS011;10171;42.694;23.318;2023-06-22T10:28:13;12.30;;;10.35;;
20020;SDS011;10171;42.694;23.318;2023-06-22T10:30:39;11.43;;;10.25;;
20020;SDS011;10171;42.694;23.318;2023-06-22T10:33:09;10.80;;;9.43;;
20020;SDS011;10171;42.694;23.318;2023-06-22T10:35:35;18.90;;;12.45;;
20020;SDS011;10171;42.694;23.318;2023-06-22T10:38:02;14.85;;;11.50;;
20020;SDS011;10171;42.694;23.318;2023-06-22T10:40:28;16.00;;;11.10;;
20020;SDS011;10171;42.694;23.318;2023-06-22T10:42:54;12.90;;;10.20;;
20020;SDS011;10171;42.694;23.318;2023-06-22T10:45:19;12.77;;;10.40;;
20020;SDS011;10171;42.694;23.318;2023-06-22T10:47:45;12.75;;;10.50;;
20020;SDS011;10171;42.694;23.318;2023-06-22T10:50:11;12.65;;;10.60;;
20020;SDS011;10171;42.694;23.318;2023-06-22T10:52:37;12.65;;;10.98;;
20020;SDS011;10171;42.694;23.318;2023-06-22T10:55:03;13.27;;;11.02;;
20020;SDS011;10171;42.694;23.318;2023-06-22T10:57:29;16.55;;;12.93;;
20020;SDS011;10171;42.694;23.318;2023-06-22T10:59:54;16.90;;;12.93;;
20020;SDS011;10171;42.694;23.318;2023-06-22T11:02:20;12.40;;;11.10;;
20020;SDS011;10171;42.694;23.318;2023-06-22T11:04:45;13.40;;;10.93;;
20020;SDS011;10171;42.694;23.318;2023-06-22T11:07:12;13.38;;;11.10;;
20020;SDS011;10171;42.694;23.318;2023-06-22T11:09:38;13.07;;;11.43;;
20020;SDS011;10171;42.694;23.318;2023-06-22T11:12:04;10.80;;;9.57;;
20020;SDS011;10171;42.694;23.318;2023-06-22T11:14:31;12.25;;;10.13;;
20020;SDS011;10171;42.694;23.318;2023-06-22T11:16:56;12.70;;;10.18;;
20020;SDS011;10171;42.694;23.318;2023-06-22T11:19:21;9.85;;;8.52;;
20020;SDS011;10171;42.694;23.318;2023-06-22T11:21:47;9.93;;;8.93;;
20020;SDS011;10171;42.694;23.318;2023-06-22T11:24:12;12.75;;;9.85;;
20020;SDS011;10171;42.694;23.318;2023-06-22T11:26:38;10.82;;;9.63;;
20020;SDS011;10171;42.694;23.318;2023-06-22T11:29:03;12.30;;;9.68;;
20020;SDS011;10171;42.694;23.318;2023-06-22T11:31:33;13.88;;;10.07;;
20020;SDS011;10171;42.694;23.318;2023-06-22T11:34:02;9.40;;;8.40;;
20020;SDS011;10171;42.694;23.318;2023-06-22T11:36:28;11.98;;;9.50;;
20020;SDS011;10171;42.694;23.318;2023-06-22T11:38:54;10.63;;;9.32;;
20020;SDS011;10171;42.694;23.318;2023-06-22T11:41:20;13.85;;;10.10;;
20020;SDS011;10171;42.694;23.318;2023-06-22T11:43:45;11.15;;;9.95;;
20020;SDS011;10171;42.694;23.318;2023-06-22T11:46:11;13.00;;;10.63;;
20020;SDS011;10171;42.694;23.318;2023-06-22T11:48:36;18.75;;;12.27;;
20020;SDS011;10171;42.694;23.318;2023-06-22T11:51:02;17.13;;;10.65;;
20020;SDS011;10171;42.694;23.318;2023-06-22T11:53:28;12.57;;;10.45;;
20020;SDS011;10171;42.694;23.318;2023-06-22T11:55:54;11.43;;;9.98;;
20020;SDS011;10171;42.694;23.318;2023-06-22T11:58:20;13.52;;;9.85;;
20020;SDS011;10171;42.694;23.318;2023-06-22T12:00:45;12.65;;;10.52;;
20020;SDS011;10171;42.694;23.318;2023-06-22T12:03:11;13.43;;;9.68;;
20020;SDS011;10171;42.694;23.318;2023-06-22T12:05:37;11.70;;;10.48;;
20020;SDS011;10171;42.694;23.318;2023-06-22T12:08:03;12.32;;;9.75;;
20020;SDS011;10171;42.694;23.318;2023-06-22T12:10:28;11.50;;;10.27;;
20020;SDS011;10171;42.694;23.318;2023-06-22T12:12:54;12.23;;;9.80;;
20020;SDS011;10171;42.694;23.318;2023-06-22T12:15:19;12.18;;;10.07;;
20020;SDS011;10171;42.694;23.318;2023-06-22T12:17:45;11.60;;;9.43;;
20020;SDS011;10171;42.694;23.318;2023-06-22T12:20:11;19.92;;;9.90;;
20020;SDS011;10171;42.694;23.318;2023-06-22T12:22:36;11.50;;;10.40;;
20020;SDS011;10171;42.694;23.318;2023-06-22T12:25:02;11.95;;;9.52;;
20020;SDS011;10171;42.694;23.318;2023-06-22T12:27:28;13.20;;;10.35;;
20020;SDS011;10171;42.694;23.318;2023-06-22T12:29:55;13.10;;;10.52;;
20020;SDS011;10171;42.694;23.318;2023-06-22T12:32:21;11.45;;;10.25;;
20020;SDS011;10171;42.694;23.318;2023-06-22T12:34:46;13.30;;;10.50;;
20020;SDS011;10171;42.694;23.318;2023-06-22T12:37:12;16.08;;;10.73;;
20020;SDS011;10171;42.694;23.318;2023-06-22T12:39:37;12.50;;;9.85;;
20020;SDS011;10171;42.694;23.318;2023-06-22T12:42:06;14.30;;;10.02;;
20020;SDS011;10171;42.694;23.318;2023-06-22T12:44:34;15.13;;;9.88;;
20020;SDS011;10171;42.694;23.318;2023-06-22T12:46:59;14.25;;;9.07;;
20020;SDS011;10171;42.694;23.318;2023-06-22T12:49:25;14.70;;;9.25;;
20020;SDS011;10171;42.694;23.318;2023-06-22T12:51:50;10.90;;;8.30;;
20020;SDS011;10171;42.694;23.318;2023-06-22T12:54:16;12.20;;;8.52;;
20020;SDS011;10171;42.694;23.318;2023-06-22T12:56:41;13.32;;;8.50;;
20020;SDS011;10171;42.694;23.318;2023-06-22T12:59:08;12.85;;;8.18;;
20020;SDS011;10171;42.694;23.318;2023-06-22T13:01:34;10.60;;;7.43;;
20020;SDS011;10171;42.694;23.318;2023-06-22T13:03:59;12.80;;;8.55;;
20020;SDS011;10171;42.694;23.318;2023-06-22T13:06:25;11.95;;;8.27;;
20020;SDS011;10171;42.694;23.318;2023-06-22T13:08:51;14.85;;;8.93;;
20020;SDS011;10171;42.694;23.318;2023-06-22T13:11:16;17.45;;;8.77;;
20020;SDS011;10171;42.694;23.318;2023-06-22T13:13:43;13.60;;;8.73;;
20020;SDS011;10171;42.694;23.318;2023-06-22T13:16:10;12.23;;;8.05;;
20020;SDS011;10171;42.694;23.318;2023-06-22T13:18:35;13.95;;;8.20;;
20020;SDS011;10171;42.694;23.318;2023-06-22T13:21:01;12.55;;;8.38;;
20020;SDS011;10171;42.694;23.318;2023-06-22T13:23:27;13.55;;;9.05;;
20020;SDS011;10171;42.694;23.318;2023-06-22T13:25:52;11.60;;;9.20;;
20020;SDS011;10171;42.694;23.318;2023-06-22T13:28:18;12.55;;;9.50;;
20020;SDS011;10171;42.694;23.318;2023-06-22T13:30:43;12.38;;;9.30;;
20020;SDS011;10171;42.694;23.318;2023-06-22T13:33:11;15.27;;;10.27;;
20020;SDS011;10171;42.694;23.318;2023-06-22T13:35:36;13.25;;;10.55;;
20020;SDS011;10171;42.694;23.318;2023-06-22T13:38:02;13.77;;;10.15;;
20020;SDS011;10171;42.694;23.318;2023-06-22T13:40:28;14.70;;;11.13;;
20020;SDS011;10171;42.694;23.318;2023-06-22T13:42:54;13.88;;;10.38;;
20020;SDS011;10171;42.694;23.318;2023-06-22T13:45:19;13.43;;;9.88;;
20020;SDS011;10171;42.694;23.318;2023-06-22T13:47:45;14.75;;;9.68;;
20020;SDS011;10171;42.694;23.318;2023-06-22T13:50:10;14.98;;;10.75;;
20020;SDS011;10171;42.694;23.318;2023-06-22T13:52:37;14.27;;;10.13;;
20020;SDS011;10171;42.694;23.318;2023-06-22T13:55:03;14.23;;;9.75;;
20020;SDS011;10171;42.694;23.318;2023-06-22T13:57:30;14.00;;;10.68;;
20020;SDS011;10171;42.694;23.318;2023-06-22T13:59:56;13.88;;;10.80;;
20020;SDS011;10171;42.694;23.318;2023-06-22T14:02:21;15.15;;;11.13;;
20020;SDS011;10171;42.694;23.318;2023-06-22T14:04:47;16.77;;;11.13;;
20020;SDS011;10171;42.694;23.318;2023-06-22T14:07:12;14.63;;;10.63;;
20020;SDS011;10171;42.694;23.318;2023-06-22T14:09:38;13.82;;;10.00;;
20020;SDS011;10171;42.694;23.318;2023-06-22T14:12:04;14.65;;;10.82;;
20020;SDS011;10171;42.694;23.318;2023-06-22T14:14:31;16.40;;;10.98;;
20020;SDS011;10171;42.694;23.318;2023-06-22T14:16:57;15.35;;;10.13;;